RA44704 YPDN-AYPY
Flight info
| Callsign | RA44704 |
|---|---|
| Flight time | N/A |
| Altitude | 37000 |
| Route | VANDI DCT MASRA B598 ESKIM DCT GUMBU |
| Aircraft | B752/M-SDFGHIRWY/S |
Departure
| Time | 2026-04-24 11:30 |
|---|---|
| Airport | Darwin International Airport / RAAF Darwin (YPDN) |
Arrival
| Time | N/A |
|---|---|
| Airport | Port Moresby Jacksons International Airport (AYPY) |
| Time | Latitude | Longitude | Altitude | Speed | Heading |
|---|---|---|---|---|---|
| 2026-04-24 11:15 | -12.40868 | 130.87686 | 88 ft | 0 kts | 19° |
| 2026-04-24 11:23 | -12.40872 | 130.87685 | 88 ft | 2 kts | 19° |
| 2026-04-24 11:23 | -12.40887 | 130.87679 | 89 ft | 2 kts | 19° |
| 2026-04-24 11:23 | -12.40901 | 130.87674 | 90 ft | 2 kts | 19° |
| 2026-04-24 11:23 | -12.40915 | 130.87669 | 90 ft | 2 kts | 19° |
| 2026-04-24 11:24 | -12.40930 | 130.87666 | 91 ft | 2 kts | 352° |
| 2026-04-24 11:24 | -12.40944 | 130.87671 | 91 ft | 2 kts | 323° |
| 2026-04-24 11:24 | -12.40953 | 130.87683 | 92 ft | 2 kts | 293° |
| 2026-04-24 11:24 | -12.40957 | 130.87697 | 91 ft | 2 kts | 275° |
| 2026-04-24 11:25 | -12.40959 | 130.87712 | 91 ft | 2 kts | 282° |
| 2026-04-24 11:25 | -12.40962 | 130.87727 | 91 ft | 2 kts | 279° |
| 2026-04-24 11:25 | -12.40963 | 130.87735 | 91 ft | 0 kts | 279° |
| 2026-04-24 11:26 | -12.40959 | 130.87712 | 91 ft | 7 kts | 277° |
| 2026-04-24 11:26 | -12.40963 | 130.87654 | 93 ft | 10 kts | 249° |
| 2026-04-24 11:27 | -12.41018 | 130.87598 | 96 ft | 13 kts | 204° |
| 2026-04-24 11:27 | -12.41066 | 130.87581 | 98 ft | 5 kts | 199° |
| 2026-04-24 11:27 | -12.41085 | 130.87520 | 100 ft | 16 kts | 287° |
| 2026-04-24 11:27 | -12.41045 | 130.87399 | 100 ft | 17 kts | 289° |
| 2026-04-24 11:28 | -12.41005 | 130.87283 | 102 ft | 16 kts | 289° |
| 2026-04-24 11:28 | -12.40968 | 130.87174 | 105 ft | 15 kts | 289° |
| 2026-04-24 11:28 | -12.40953 | 130.87088 | 106 ft | 10 kts | 246° |
| 2026-04-24 11:28 | -12.41025 | 130.87068 | 109 ft | 11 kts | 182° |
| 2026-04-24 11:29 | -12.41114 | 130.87080 | 109 ft | 16 kts | 140° |
| 2026-04-24 11:29 | -12.41166 | 130.87199 | 109 ft | 29 kts | 109° |
| 2026-04-24 11:29 | -12.41340 | 130.87729 | 103 ft | 128 kts | 110° |
| 2026-04-24 11:29 | -12.41715 | 130.88806 | 454 ft | 182 kts | 108° |
| 2026-04-24 11:30 | -12.42170 | 130.90097 | 1438 ft | 203 kts | 107° |
| 2026-04-24 11:30 | -12.42392 | 130.91467 | 2398 ft | 206 kts | 82° |
| 2026-04-24 11:30 | -12.42032 | 130.92966 | 2973 ft | 232 kts | 75° |
| 2026-04-24 11:30 | -12.41570 | 130.94652 | 2979 ft | 253 kts | 75° |
| 2026-04-24 11:31 | -12.41090 | 130.96356 | 2954 ft | 245 kts | 75° |
| 2026-04-24 11:31 | -12.40607 | 130.98030 | 2962 ft | 247 kts | 75° |
| 2026-04-24 11:31 | -12.40115 | 130.99721 | 2955 ft | 246 kts | 74° |
| 2026-04-24 11:31 | -12.39629 | 131.01376 | 2954 ft | 246 kts | 74° |
| 2026-04-24 11:32 | -12.39129 | 131.03073 | 2959 ft | 248 kts | 74° |
| 2026-04-24 11:32 | -12.38632 | 131.04752 | 2954 ft | 245 kts | 74° |
| 2026-04-24 11:32 | -12.38141 | 131.06410 | 2958 ft | 246 kts | 74° |
| 2026-04-24 11:32 | -12.37642 | 131.08092 | 2960 ft | 247 kts | 74° |
| 2026-04-24 11:33 | -12.37072 | 131.09760 | 3017 ft | 254 kts | 68° |
| 2026-04-24 11:33 | -12.36376 | 131.11414 | 4084 ft | 254 kts | 68° |
| 2026-04-24 11:33 | -12.35704 | 131.13043 | 5198 ft | 255 kts | 68° |
| 2026-04-24 11:33 | -12.35008 | 131.14719 | 6242 ft | 258 kts | 68° |
| 2026-04-24 11:34 | -12.34309 | 131.16394 | 7125 ft | 266 kts | 67° |
| 2026-04-24 11:34 | -12.33839 | 131.18231 | 7958 ft | 274 kts | 86° |
| 2026-04-24 11:34 | -12.33834 | 131.20204 | 8756 ft | 284 kts | 89° |
| 2026-04-24 11:34 | -12.33839 | 131.22231 | 9566 ft | 293 kts | 89° |
| 2026-04-24 11:35 | -12.33853 | 131.24318 | 10458 ft | 297 kts | 90° |
| 2026-04-24 11:35 | -12.33875 | 131.26485 | 10970 ft | 316 kts | 90° |
| 2026-04-24 11:35 | -12.33901 | 131.28798 | 11426 ft | 335 kts | 90° |
| 2026-04-24 11:35 | -12.33931 | 131.31239 | 11903 ft | 350 kts | 90° |
| 2026-04-24 11:36 | -12.33962 | 131.33722 | 12714 ft | 353 kts | 90° |
| 2026-04-24 11:36 | -12.33994 | 131.36224 | 13527 ft | 355 kts | 91° |
| 2026-04-24 11:36 | -12.34027 | 131.38763 | 14266 ft | 358 kts | 91° |